createdAt,value
2018-05-15T00:00:11.115Z,53.83
2018-05-15T00:01:11.126Z,54.19
2018-05-15T00:02:11.063Z,53.92
2018-05-15T00:03:11.051Z,53.80
2018-05-15T00:04:11.035Z,53.74
2018-05-15T00:05:11.019Z,53.45
2018-05-15T00:06:11.004Z,53.42
2018-05-15T00:07:10.991Z,53.52
2018-05-15T00:08:10.974Z,54.19
2018-05-15T00:09:10.965Z,53.70
2018-05-15T00:10:10.946Z,53.23
2018-05-15T00:11:10.932Z,53.03
2018-05-15T00:12:10.917Z,53.64
2018-05-15T00:13:10.901Z,53.70
2018-05-15T00:14:10.887Z,54.57
2018-05-15T00:15:10.878Z,54.67
2018-05-15T00:16:10.859Z,54.57
2018-05-15T00:17:10.843Z,54.28
2018-05-15T00:18:10.829Z,54.28
2018-05-15T00:19:10.815Z,53.80
2018-05-15T00:20:10.797Z,53.61
2018-05-15T00:21:10.785Z,54.38
2018-05-15T00:22:10.768Z,54.00
2018-05-15T00:23:10.755Z,54.96
2018-05-15T00:24:10.743Z,53.90
2018-05-15T00:25:10.724Z,53.61
2018-05-15T00:26:10.711Z,54.09
2018-05-15T00:27:10.695Z,53.70
2018-05-15T00:28:10.684Z,54.57
2018-05-15T00:29:10.663Z,54.57
2018-05-15T00:30:10.649Z,54.19
2018-05-15T00:31:10.646Z,54.47
2018-05-15T00:32:10.622Z,54.19
2018-05-15T00:33:10.615Z,54.77
2018-05-15T00:34:10.590Z,54.00
2018-05-15T00:35:10.576Z,54.38
2018-05-15T00:36:10.561Z,53.80
2018-05-15T00:37:10.545Z,53.90
2018-05-15T00:38:10.530Z,53.90
2018-05-15T00:39:10.517Z,54.28
2018-05-15T00:40:10.503Z,55.53
2018-05-15T00:41:10.485Z,54.45
2018-05-15T00:42:10.472Z,54.19
2018-05-15T00:43:10.458Z,54.38
2018-05-15T00:44:10.445Z,54.67
2018-05-15T00:45:10.428Z,54.35
2018-05-15T00:46:10.412Z,53.70
2018-05-15T00:47:10.406Z,54.25
2018-05-15T00:48:10.382Z,54.00
2018-05-15T00:49:10.368Z,53.78
2018-05-15T00:50:10.352Z,53.87
2018-05-15T00:51:10.337Z,53.20
2018-05-15T00:52:10.325Z,53.20
2018-05-15T00:53:10.306Z,53.39
2018-05-15T00:54:10.299Z,53.68
2018-05-15T00:55:10.278Z,53.58
2018-05-15T00:56:10.263Z,53.68
2018-05-15T00:57:10.248Z,53.68
2018-05-15T00:58:10.232Z,54.16
2018-05-15T00:59:10.217Z,53.68
2018-05-15T01:00:10.205Z,54.06
2018-05-15T01:01:10.188Z,53.97
2018-05-15T01:02:10.171Z,54.64
2018-05-15T01:03:10.156Z,54.45
2018-05-15T01:04:10.140Z,53.30
2018-05-15T01:05:10.126Z,53.58
2018-05-15T01:06:10.113Z,53.49
2018-05-15T01:07:10.096Z,53.58
2018-05-15T01:08:10.082Z,53.30
2018-05-15T01:09:10.065Z,53.58
2018-05-15T01:10:10.052Z,53.39
2018-05-15T01:11:10.042Z,53.39
2018-05-15T01:12:10.021Z,54.16
2018-05-15T01:13:10.006Z,54.16
2018-05-15T01:14:09.991Z,53.01
2018-05-15T01:15:09.976Z,53.87
2018-05-15T01:16:09.959Z,53.49
2018-05-15T01:17:09.946Z,53.87
2018-05-15T01:18:09.984Z,53.30
2018-05-15T01:19:09.917Z,53.01
2018-05-15T01:20:09.899Z,53.94
2018-05-15T01:21:09.887Z,53.97
2018-05-15T01:22:09.870Z,53.39
2018-05-15T01:23:09.855Z,53.39
2018-05-15T01:24:09.842Z,54.23
2018-05-15T01:25:09.825Z,54.42
2018-05-15T01:26:09.816Z,54.16
2018-05-15T01:27:09.794Z,53.94
2018-05-15T01:28:09.783Z,53.49
2018-05-15T01:29:09.763Z,53.36
2018-05-15T01:30:09.749Z,53.46
2018-05-15T01:31:09.733Z,53.56
2018-05-15T01:32:09.719Z,54.13
2018-05-15T01:33:09.703Z,53.56
2018-05-15T01:34:09.688Z,53.27
2018-05-15T01:35:09.690Z,53.27
2018-05-15T01:36:09.656Z,53.66
2018-05-15T01:37:09.642Z,52.79
2018-05-15T01:38:09.627Z,53.17
2018-05-15T01:39:09.611Z,53.46
2018-05-15T01:40:09.601Z,53.36
2018-05-15T01:41:09.591Z,53.08
2018-05-15T01:42:09.567Z,53.17
2018-05-15T01:43:09.552Z,54.04
2018-05-15T01:44:09.537Z,53.36
2018-05-15T01:45:09.521Z,53.17
2018-05-15T01:46:09.505Z,53.27
2018-05-15T01:47:09.491Z,53.85
2018-05-15T01:48:09.479Z,54.04
2018-05-15T01:49:09.462Z,54.52
2018-05-15T01:50:09.445Z,53.85
2018-05-15T01:51:09.506Z,54.71
2018-05-15T01:52:09.428Z,54.52
2018-05-15T01:53:09.403Z,54.42
2018-05-15T01:54:09.383Z,53.46
2018-05-15T01:55:09.367Z,54.04
2018-05-15T01:56:09.352Z,53.85
2018-05-15T01:57:09.337Z,53.46
2018-05-15T01:58:09.319Z,54.52
2018-05-15T01:59:09.307Z,53.94
2018-05-15T02:00:09.291Z,54.01
2018-05-15T02:01:09.276Z,53.72
2018-05-15T02:02:09.259Z,55.07
2018-05-15T02:03:09.245Z,54.39
2018-05-15T02:04:09.229Z,54.30
2018-05-15T02:05:09.217Z,54.21
2018-05-15T02:06:09.198Z,54.68
2018-05-15T02:07:09.183Z,54.01
2018-05-15T02:08:09.169Z,53.82
2018-05-15T02:09:09.155Z,53.53
2018-05-15T02:10:09.141Z,54.21
2018-05-15T02:11:09.121Z,54.21
2018-05-15T02:12:09.105Z,54.68
2018-05-15T02:13:09.089Z,54.01
2018-05-15T02:14:09.079Z,53.91
2018-05-15T02:15:09.057Z,54.68
2018-05-15T02:16:09.099Z,54.78
2018-05-15T02:17:09.030Z,55.26
2018-05-15T02:18:09.014Z,54.88
2018-05-15T02:19:08.996Z,55.07
2018-05-15T02:20:08.981Z,55.55
2018-05-15T02:21:08.965Z,54.58
2018-05-15T02:22:08.949Z,54.88
2018-05-15T02:23:08.936Z,54.88
2018-05-15T02:24:08.919Z,55.07
2018-05-15T02:25:08.903Z,55.64
2018-05-15T02:26:08.888Z,55.55
2018-05-15T02:27:08.877Z,56.12
2018-05-15T02:28:08.858Z,56.02
2018-05-15T02:29:08.842Z,55.07
2018-05-15T02:30:08.826Z,55.26
2018-05-15T02:31:08.810Z,54.49
2018-05-15T02:32:08.795Z,54.78
2018-05-15T02:33:08.779Z,54.49
2018-05-15T02:34:08.761Z,54.49
2018-05-15T02:35:08.749Z,55.35
2018-05-15T02:36:08.732Z,54.97
2018-05-15T02:37:08.717Z,55.45
2018-05-15T02:38:08.700Z,55.26
2018-05-15T02:39:08.686Z,54.68
2018-05-15T02:40:08.671Z,54.49
2018-05-15T02:41:08.654Z,54.97
2018-05-15T02:42:08.639Z,55.35
2018-05-15T02:43:08.623Z,55.64
2018-05-15T02:44:08.606Z,56.12
2018-05-15T02:45:08.590Z,55.64
2018-05-15T02:46:08.575Z,55.45
2018-05-15T02:47:08.562Z,54.49
2018-05-15T02:48:08.543Z,54.68
2018-05-15T02:49:08.530Z,54.97
2018-05-15T02:50:08.513Z,54.11
2018-05-15T02:51:08.497Z,55.35
2018-05-15T02:52:08.486Z,55.45
2018-05-15T02:53:08.465Z,54.68
2018-05-15T02:54:08.450Z,55.64
2018-05-15T02:55:08.445Z,55.35
2018-05-15T02:56:08.421Z,56.12
2018-05-15T02:57:08.405Z,55.23
2018-05-15T02:58:08.391Z,56.22
2018-05-15T02:59:08.372Z,55.42
2018-05-15T03:00:08.391Z,56.09
2018-05-15T03:01:08.339Z,56.29
2018-05-15T03:02:08.326Z,56.09
2018-05-15T03:03:08.308Z,56.09
2018-05-15T03:04:08.293Z,56.57
2018-05-15T03:05:08.279Z,55.71
2018-05-15T03:06:08.260Z,56.29
2018-05-15T03:07:08.246Z,56.76
2018-05-15T03:08:08.236Z,56.29
2018-05-15T03:09:08.212Z,56.29
2018-05-15T03:10:08.197Z,56.76
2018-05-15T03:11:08.181Z,56.00
2018-05-15T03:12:08.189Z,56.38
2018-05-15T03:13:08.163Z,56.00
2018-05-15T03:14:08.142Z,56.19
2018-05-15T03:15:08.122Z,56.00
2018-05-15T03:16:08.104Z,56.76
2018-05-15T03:17:08.087Z,56.00
2018-05-15T03:18:08.071Z,56.76
2018-05-15T03:19:08.054Z,57.15
2018-05-15T03:20:08.039Z,58.01
2018-05-15T03:21:08.027Z,57.15
2018-05-15T03:22:08.008Z,56.96
2018-05-15T03:23:07.992Z,56.96
2018-05-15T03:24:08.694Z,57.24
2018-05-15T03:25:07.962Z,57.24
2018-05-15T03:26:07.944Z,57.06
2018-05-15T03:27:07.928Z,56.86
2018-05-15T03:28:07.912Z,56.76
2018-05-15T03:29:07.894Z,57.43
2018-05-15T03:30:07.882Z,56.67
2018-05-15T03:31:07.867Z,57.15
2018-05-15T03:32:07.890Z,57.15
2018-05-15T03:33:07.830Z,57.72
2018-05-15T03:34:07.815Z,57.82
2018-05-15T03:35:07.800Z,56.67
2018-05-15T03:36:07.785Z,57.15
2018-05-15T03:37:07.767Z,56.76
2018-05-15T03:38:07.756Z,57.15
2018-05-15T03:39:07.789Z,58.01
2018-05-15T03:40:07.720Z,56.93
2018-05-15T03:41:07.708Z,57.31
2018-05-15T03:42:07.688Z,57.41
2018-05-15T03:43:07.679Z,57.21
2018-05-15T03:44:07.656Z,57.89
2018-05-15T03:45:07.641Z,57.41
2018-05-15T03:46:07.622Z,58.08
2018-05-15T03:47:07.625Z,57.98
2018-05-15T03:48:07.599Z,57.60
2018-05-15T03:49:07.575Z,57.79
2018-05-15T03:50:07.559Z,57.79
2018-05-15T03:51:07.543Z,57.98
2018-05-15T03:52:07.546Z,57.79
2018-05-15T03:53:07.511Z,57.98
2018-05-15T03:54:07.496Z,58.94
2018-05-15T03:55:07.481Z,58.37
2018-05-15T03:56:07.466Z,58.37
2018-05-15T03:57:07.446Z,58.37
2018-05-15T03:58:07.430Z,58.37
2018-05-15T03:59:07.417Z,58.94
2018-05-15T04:00:07.441Z,58.17
2018-05-15T04:01:07.381Z,58.08
2018-05-15T04:02:07.367Z,58.94
2018-05-15T04:03:07.354Z,57.79
2018-05-15T04:04:07.388Z,57.98
2018-05-15T04:05:07.318Z,58.46
2018-05-15T04:06:07.953Z,58.27
2018-05-15T04:07:07.344Z,58.27
2018-05-15T04:08:07.281Z,57.89
2018-05-15T04:09:07.253Z,58.08
2018-05-15T04:10:07.238Z,58.56
2018-05-15T04:11:07.363Z,58.94
2018-05-15T04:12:07.239Z,58.65
2018-05-15T04:13:07.190Z,58.65
2018-05-15T04:14:07.172Z,58.84
2018-05-15T04:15:07.167Z,58.56
2018-05-15T04:16:07.141Z,58.56
2018-05-15T04:17:07.125Z,58.08
2018-05-15T04:18:07.169Z,58.94
2018-05-15T04:19:07.154Z,58.65
2018-05-15T04:20:07.146Z,58.46
2018-05-15T04:21:07.081Z,58.17
2018-05-15T04:22:07.098Z,58.27
2018-05-15T04:23:07.140Z,58.84
2018-05-15T04:24:08.091Z,58.27
2018-05-15T04:25:07.109Z,58.94
2018-05-15T04:26:07.066Z,59.23
2018-05-15T04:27:07.022Z,58.84
2018-05-15T04:28:07.119Z,58.84
2018-05-15T04:29:06.932Z,58.75
2018-05-15T04:30:06.965Z,58.37
2018-05-15T04:31:06.954Z,58.27
2018-05-15T04:32:06.915Z,58.65
2018-05-15T04:33:06.873Z,59.42
2018-05-15T04:34:06.870Z,58.56
2018-05-15T04:35:06.886Z,59.23
2018-05-15T04:36:06.833Z,59.23
2018-05-15T04:37:06.803Z,59.23
2018-05-15T04:38:06.787Z,59.42
2018-05-15T04:39:06.797Z,59.42
2018-05-15T04:40:06.792Z,60.00
2018-05-15T04:41:06.736Z,59.23
2018-05-15T04:42:06.721Z,59.80
2018-05-15T04:43:06.745Z,58.94
2018-05-15T04:44:06.693Z,59.80
2018-05-15T04:45:06.709Z,59.80
2018-05-15T04:46:06.656Z,60.00
2018-05-15T04:47:06.642Z,59.04
2018-05-15T04:48:06.628Z,60.09
2018-05-15T04:49:06.611Z,59.61
2018-05-15T04:50:06.600Z,59.90
2018-05-15T04:51:06.576Z,59.71
2018-05-15T04:52:06.721Z,60.28
2018-05-15T04:53:08.129Z,60.19
2018-05-15T04:54:07.135Z,59.52
2018-05-15T04:55:06.564Z,59.71
2018-05-15T04:56:06.504Z,60.09
2018-05-15T04:57:06.479Z,60.28
2018-05-15T04:58:06.510Z,60.47
2018-05-15T04:59:06.454Z,60.38
2018-05-15T05:00:06.472Z,59.90
2018-05-15T05:01:06.420Z,59.71
2018-05-15T05:02:06.486Z,60.19
2018-05-15T05:03:06.433Z,60.28
2018-05-15T05:04:06.367Z,60.38
2018-05-15T05:05:06.350Z,60.19
2018-05-15T05:06:06.335Z,60.38
2018-05-15T05:07:06.326Z,60.19
2018-05-15T05:08:06.312Z,60.00
2018-05-15T05:09:06.319Z,60.09
2018-05-15T05:10:06.273Z,60.86
2018-05-15T05:11:06.283Z,60.09
2018-05-15T05:12:06.238Z,60.22
2018-05-15T05:13:06.219Z,61.43
2018-05-15T05:14:06.202Z,61.08
2018-05-15T05:15:06.188Z,60.89
2018-05-15T05:16:06.176Z,60.50
2018-05-15T05:17:06.157Z,60.89
2018-05-15T05:18:06.141Z,60.79
2018-05-15T05:19:06.124Z,60.31
2018-05-15T05:20:06.110Z,60.89
2018-05-15T05:21:06.190Z,60.60
2018-05-15T05:22:06.074Z,60.41
2018-05-15T05:23:06.063Z,60.31
2018-05-15T05:24:06.045Z,60.03
2018-05-15T05:25:06.028Z,60.03
2018-05-15T05:26:06.011Z,60.12
2018-05-15T05:27:06.049Z,60.03
2018-05-15T05:28:06.017Z,60.60
2018-05-15T05:29:05.963Z,61.08
2018-05-15T05:30:05.950Z,61.56
2018-05-15T05:31:05.933Z,60.60
2018-05-15T05:32:05.918Z,60.89
2018-05-15T05:33:05.901Z,60.53
2018-05-15T05:34:05.884Z,60.53
2018-05-15T05:35:05.869Z,60.35
2018-05-15T05:36:05.852Z,59.96
2018-05-15T05:37:05.836Z,59.86
2018-05-15T05:38:05.820Z,60.05
2018-05-15T05:39:05.809Z,60.35
2018-05-15T05:40:05.814Z,59.38
2018-05-15T05:41:05.772Z,59.96
2018-05-15T05:42:05.761Z,59.86
2018-05-15T05:43:05.740Z,60.44
2018-05-15T05:44:05.733Z,60.63
2018-05-15T05:45:05.710Z,59.96
2018-05-15T05:46:05.694Z,60.05
2018-05-15T05:47:05.678Z,60.63
2018-05-15T05:48:05.661Z,61.40
2018-05-15T05:49:05.646Z,61.30
2018-05-15T05:50:05.631Z,60.82
2018-05-15T05:51:05.616Z,60.72
2018-05-15T05:52:05.627Z,60.63
2018-05-15T05:53:05.588Z,60.18
2018-05-15T05:54:05.567Z,59.12
2018-05-15T05:55:05.554Z,60.08
2018-05-15T05:56:05.539Z,59.41
2018-05-15T05:57:05.520Z,58.45
2018-05-15T05:58:05.504Z,58.36
2018-05-15T05:59:05.488Z,58.17
2018-05-15T06:00:05.479Z,58.55
2018-05-15T06:01:05.457Z,59.12
2018-05-15T06:02:05.442Z,58.36
2018-05-15T06:03:05.429Z,58.45
2018-05-15T06:04:05.412Z,58.94
2018-05-15T06:05:05.395Z,58.45
2018-05-15T06:06:05.381Z,58.26
2018-05-15T06:07:05.366Z,57.68
2018-05-15T06:08:05.349Z,57.71
2018-05-15T06:09:05.335Z,58.29
2018-05-15T06:10:05.320Z,58.07
2018-05-15T06:11:05.304Z,58.39
2018-05-15T06:12:05.291Z,57.90
2018-05-15T06:13:05.295Z,58.39
2018-05-15T06:14:05.258Z,58.10
2018-05-15T06:15:05.241Z,57.90
2018-05-15T06:16:05.227Z,58.00
2018-05-15T06:17:05.212Z,57.90
2018-05-15T06:18:05.195Z,57.90
2018-05-15T06:19:05.180Z,58.10
2018-05-15T06:20:05.163Z,58.48
2018-05-15T06:21:05.186Z,58.77
2018-05-15T06:22:05.133Z,58.48
2018-05-15T06:23:05.117Z,58.48
2018-05-15T06:24:05.102Z,57.90
2018-05-15T06:25:05.090Z,57.90
2018-05-15T06:26:05.077Z,57.81
2018-05-15T06:27:05.055Z,57.71
2018-05-15T06:28:05.047Z,58.00
2018-05-15T06:29:05.026Z,59.06
2018-05-15T06:30:05.015Z,58.48
2018-05-15T06:31:04.995Z,57.75
2018-05-15T06:32:04.980Z,57.93
2018-05-15T06:33:04.964Z,58.22
2018-05-15T06:34:04.949Z,58.99
2018-05-15T06:35:04.934Z,58.61
2018-05-15T06:36:04.923Z,58.42
2018-05-15T06:37:04.905Z,57.75
2018-05-15T06:38:04.889Z,57.93
2018-05-15T06:39:04.872Z,58.22
2018-05-15T06:40:04.860Z,58.03
2018-05-15T06:41:04.843Z,58.51
2018-05-15T06:42:04.830Z,58.42
2018-05-15T06:43:04.814Z,56.68
2018-05-15T06:44:04.801Z,58.13
2018-05-15T06:45:04.785Z,56.59
2018-05-15T06:46:04.770Z,56.78
2018-05-15T06:47:04.755Z,56.30
2018-05-15T06:48:04.740Z,55.53
2018-05-15T06:49:04.723Z,56.21
2018-05-15T06:50:04.706Z,56.91
2018-05-15T06:51:04.695Z,56.23
2018-05-15T06:52:04.678Z,57.10
2018-05-15T06:53:04.665Z,57.29
2018-05-15T06:54:04.648Z,58.06
2018-05-15T06:55:04.636Z,58.54
2018-05-15T06:56:04.618Z,57.97
2018-05-15T06:57:04.601Z,56.62
2018-05-15T06:58:04.588Z,56.04
2018-05-15T06:59:04.572Z,56.14
2018-05-15T07:00:04.561Z,56.52
2018-05-15T07:01:04.543Z,58.35
2018-05-15T07:02:04.529Z,57.39
2018-05-15T07:03:04.514Z,57.39
2018-05-15T07:04:04.498Z,56.91
2018-05-15T07:05:04.482Z,57.29
2018-05-15T07:06:04.468Z,57.10
2018-05-15T07:07:04.453Z,56.81
2018-05-15T07:08:04.437Z,56.26
2018-05-15T07:09:04.422Z,56.91
2018-05-15T07:10:04.409Z,57.00
2018-05-15T07:11:04.393Z,57.32
2018-05-15T07:12:04.382Z,57.03
2018-05-15T07:13:04.371Z,56.26
2018-05-15T07:14:04.380Z,56.84
2018-05-15T07:15:04.335Z,56.74
2018-05-15T07:16:04.326Z,55.59
2018-05-15T07:17:04.304Z,56.16
2018-05-15T07:18:04.289Z,55.40
2018-05-15T07:19:04.277Z,56.74
2018-05-15T07:20:04.270Z,57.22
2018-05-15T07:21:04.273Z,56.93
2018-05-15T07:22:04.230Z,56.93
2018-05-15T07:23:04.215Z,55.59
2018-05-15T07:24:04.206Z,55.49
2018-05-15T07:25:04.186Z,56.36
2018-05-15T07:26:04.174Z,56.10
2018-05-15T07:27:04.158Z,55.13
2018-05-15T07:28:04.142Z,54.94
2018-05-15T07:29:04.129Z,55.33
2018-05-15T07:30:04.116Z,55.13
2018-05-15T07:31:04.101Z,55.43
2018-05-15T07:32:04.084Z,56.38
2018-05-15T07:33:04.120Z,56.48
2018-05-15T07:34:04.057Z,54.94
2018-05-15T07:35:04.041Z,56.20
2018-05-15T07:36:04.028Z,55.62
2018-05-15T07:37:04.012Z,56.48
2018-05-15T07:38:04.009Z,55.13
2018-05-15T07:39:03.987Z,55.04
2018-05-15T07:40:03.969Z,53.98
2018-05-15T07:41:03.953Z,56.10
2018-05-15T07:42:03.941Z,55.13
2018-05-15T07:43:03.925Z,54.85
2018-05-15T07:44:03.911Z,55.43
2018-05-15T07:45:03.899Z,56.12
2018-05-15T07:46:03.886Z,54.94
2018-05-15T07:47:03.871Z,54.49
2018-05-15T07:48:03.853Z,55.35
2018-05-15T07:49:03.839Z,55.35
2018-05-15T07:50:03.882Z,53.33
2018-05-15T07:51:03.811Z,54.58
2018-05-15T07:52:03.797Z,54.39
2018-05-15T07:53:03.790Z,54.39
2018-05-15T07:54:03.769Z,54.68
2018-05-15T07:55:03.753Z,53.72
2018-05-15T07:56:03.741Z,53.91
2018-05-15T07:57:03.726Z,53.62
2018-05-15T07:58:03.710Z,53.65
2018-05-15T07:59:03.705Z,54.61
2018-05-15T08:00:03.684Z,53.45
2018-05-15T08:01:03.669Z,53.65
2018-05-15T08:02:03.660Z,54.61
2018-05-15T08:03:03.642Z,53.84
2018-05-15T08:04:03.628Z,53.94
2018-05-15T08:05:03.613Z,53.36
2018-05-15T08:06:03.597Z,53.55
2018-05-15T08:07:03.585Z,54.32
2018-05-15T08:08:03.573Z,53.27
2018-05-15T08:09:03.555Z,54.71
2018-05-15T08:10:03.542Z,55.00
2018-05-15T08:11:03.529Z,53.36
2018-05-15T08:12:03.515Z,54.22
2018-05-15T08:13:03.507Z,53.84
2018-05-15T08:14:03.490Z,53.45
2018-05-15T08:15:03.473Z,52.71
2018-05-15T08:16:03.458Z,52.59
2018-05-15T08:17:03.444Z,53.19
2018-05-15T08:18:03.432Z,53.48
2018-05-15T08:19:03.415Z,53.58
2018-05-15T08:20:03.404Z,53.48
2018-05-15T08:21:03.393Z,51.75
2018-05-15T08:22:03.374Z,51.56
2018-05-15T08:23:03.362Z,50.30
2018-05-15T08:24:03.346Z,50.78
2018-05-15T08:25:03.336Z,50.98
2018-05-15T08:26:03.321Z,50.88
2018-05-15T08:27:03.306Z,52.04
2018-05-15T08:28:03.316Z,51.84
2018-05-15T08:29:03.277Z,51.94
2018-05-15T08:30:03.266Z,51.65
2018-05-15T08:31:03.253Z,50.69
2018-05-15T08:32:03.241Z,49.17
2018-05-15T08:33:03.245Z,49.27
2018-05-15T08:34:03.214Z,49.24
2018-05-15T08:35:03.197Z,49.05
2018-05-15T08:36:03.183Z,48.79
2018-05-15T08:37:03.168Z,49.46
2018-05-15T08:38:03.157Z,49.37
2018-05-15T08:39:03.142Z,49.07
2018-05-15T08:40:03.148Z,48.88
2018-05-15T08:41:03.113Z,50.71
2018-05-15T08:42:03.104Z,48.40
2018-05-15T08:43:03.088Z,49.07
2018-05-15T08:44:03.075Z,49.27
2018-05-15T08:45:03.058Z,50.23
2018-05-15T08:46:03.046Z,48.59
2018-05-15T08:47:03.034Z,48.69
2018-05-15T08:48:03.021Z,48.79
2018-05-15T08:49:03.005Z,48.69
2018-05-15T08:50:02.993Z,49.17
2018-05-15T08:51:02.983Z,47.44
2018-05-15T08:52:02.965Z,48.49
2018-05-15T08:53:02.950Z,46.59
2018-05-15T08:54:02.937Z,45.53
2018-05-15T08:55:02.925Z,44.56
2018-05-15T08:56:02.916Z,45.14
2018-05-15T08:57:02.900Z,45.82
2018-05-15T08:58:02.885Z,45.04
2018-05-15T08:59:02.872Z,45.43
2018-05-15T09:00:02.855Z,46.88
2018-05-15T09:01:02.843Z,47.17
2018-05-15T09:02:02.829Z,48.81
2018-05-15T09:03:02.817Z,49.29
2018-05-15T09:04:02.804Z,47.45
2018-05-15T09:05:02.792Z,45.72
2018-05-15T09:06:02.780Z,46.61
2018-05-15T09:07:02.763Z,44.95
2018-05-15T09:08:02.754Z,45.82
2018-05-15T09:09:02.737Z,44.85
2018-05-15T09:10:02.726Z,45.65
2018-05-15T09:11:02.712Z,46.20
2018-05-15T09:12:02.697Z,46.42
2018-05-15T09:13:02.683Z,44.49
2018-05-15T09:14:02.680Z,43.24
2018-05-15T09:15:02.659Z,43.81
2018-05-15T09:16:02.644Z,44.59
2018-05-15T09:17:02.630Z,44.68
2018-05-15T09:18:02.623Z,46.23
2018-05-15T09:19:02.613Z,46.71
2018-05-15T09:20:02.592Z,46.42
2018-05-15T09:21:02.581Z,46.23
2018-05-15T09:22:02.565Z,46.81
2018-05-15T09:23:02.552Z,47.19
2018-05-15T09:24:02.539Z,46.90
2018-05-15T09:25:02.525Z,45.55
2018-05-15T09:26:02.511Z,42.46
2018-05-15T09:27:02.499Z,41.11
2018-05-15T09:28:02.488Z,39.76
2018-05-15T09:29:02.476Z,41.52
2018-05-15T09:30:02.464Z,40.24
2018-05-15T09:31:02.449Z,40.17
2018-05-15T09:32:02.437Z,41.61
2018-05-15T09:33:02.421Z,42.87
2018-05-15T09:34:02.408Z,44.32
2018-05-15T09:35:02.397Z,43.26
2018-05-15T09:36:02.385Z,40.94
2018-05-15T09:37:02.372Z,42.68
2018-05-15T09:38:02.358Z,42.48
2018-05-15T09:39:02.345Z,41.03
2018-05-15T09:40:02.334Z,42.41
2018-05-15T09:41:02.323Z,41.71
2018-05-15T09:42:02.305Z,41.71
2018-05-15T09:43:02.292Z,42.87
2018-05-15T09:44:02.280Z,41.33
2018-05-15T09:45:02.269Z,41.61
2018-05-15T09:46:02.261Z,42.48
2018-05-15T09:47:02.242Z,40.45
2018-05-15T09:48:02.228Z,40.17
2018-05-15T09:49:02.215Z,38.71
2018-05-15T09:50:02.223Z,38.04
2018-05-15T09:51:02.211Z,39.12
2018-05-15T09:52:02.178Z,39.29
2018-05-15T09:53:02.164Z,39.59
2018-05-15T09:54:02.158Z,38.04
2018-05-15T09:55:02.142Z,38.53
2018-05-15T09:56:02.127Z,38.53
2018-05-15T09:57:02.117Z,39.70
2018-05-15T09:58:02.127Z,40.38
2018-05-15T09:59:02.102Z,40.67
2018-05-15T10:00:02.080Z,41.73
2018-05-15T10:01:02.065Z,42.70
2018-05-15T10:02:02.060Z,41.15
2018-05-15T10:03:02.067Z,38.64
2018-05-15T10:04:02.044Z,38.45
2018-05-15T10:05:02.013Z,39.12
2018-05-15T10:06:01.999Z,38.83
2018-05-15T10:07:01.986Z,39.51
2018-05-15T10:08:02.050Z,39.32
2018-05-15T10:09:01.963Z,39.70
2018-05-15T10:10:01.951Z,38.64
2018-05-15T10:11:01.937Z,39.72
2018-05-15T10:12:01.925Z,39.43
2018-05-15T10:13:01.926Z,38.46
2018-05-15T10:14:01.915Z,39.53
2018-05-15T10:15:01.891Z,40.20
2018-05-15T10:16:01.877Z,38.95
2018-05-15T10:17:01.866Z,37.98
2018-05-15T10:18:01.855Z,37.04
2018-05-15T10:19:01.842Z,37.73
2018-05-15T10:20:01.926Z,35.60
2018-05-15T10:21:01.822Z,35.04
2018-05-15T10:22:01.813Z,35.25
2018-05-15T10:23:01.806Z,34.97
2018-05-15T10:24:01.808Z,34.43
2018-05-15T10:25:01.794Z,35.13
2018-05-15T10:26:01.779Z,32.99
2018-05-15T10:27:01.771Z,33.90
2018-05-15T10:28:01.763Z,33.25
2018-05-15T10:29:01.757Z,32.11
2018-05-15T10:30:01.865Z,31.07
2018-05-15T10:31:01.745Z,28.45
2018-05-15T10:32:01.739Z,29.83
2018-05-15T10:33:01.731Z,29.46
2018-05-15T10:34:01.728Z,27.91
2018-05-15T10:35:01.724Z,26.13
2018-05-15T10:36:01.721Z,29.07
2018-05-15T10:37:01.714Z,28.32
2018-05-15T10:38:01.709Z,27.26
2018-05-15T10:39:01.706Z,26.68
2018-05-15T10:40:01.704Z,24.93
2018-05-15T10:41:01.701Z,24.75
2018-05-15T10:42:01.695Z,22.81
2018-05-15T10:43:01.694Z,22.91
2018-05-15T10:44:01.708Z,22.73
2018-05-15T10:45:01.693Z,21.85
2018-05-15T10:46:01.687Z,23.03
2018-05-15T10:47:01.682Z,23.12
2018-05-15T10:48:01.684Z,21.61
2018-05-15T10:49:01.679Z,20.37
2018-05-15T10:50:01.675Z,22.23
2018-05-15T10:51:01.676Z,21.87
2018-05-15T10:52:01.672Z,21.00
2018-05-15T10:53:01.668Z,20.12
2018-05-15T10:54:01.667Z,19.56
2018-05-15T10:55:01.668Z,18.57
2018-05-15T10:56:01.670Z,18.77
2018-05-15T10:57:01.664Z,19.27
2018-05-15T10:58:01.662Z,18.61
2018-05-15T10:59:01.663Z,18.90
2018-05-15T11:00:01.667Z,18.92
2018-05-15T11:01:01.661Z,16.74
2018-05-15T11:02:01.662Z,18.63
2018-05-15T11:03:01.660Z,18.82
2018-05-15T11:04:01.672Z,18.92
2018-05-15T11:05:01.660Z,17.74
2018-05-15T11:06:01.663Z,18.04
2018-05-15T11:07:01.662Z,17.75
2018-05-15T11:08:01.665Z,17.94
2018-05-15T11:09:01.665Z,18.14
2018-05-15T11:10:01.663Z,17.16
2018-05-15T11:11:01.664Z,16.07
2018-05-15T11:12:01.666Z,15.97
2018-05-15T11:13:01.669Z,16.64
2018-05-15T11:14:01.665Z,17.62
2018-05-15T11:15:01.668Z,18.73
2018-05-15T11:16:01.669Z,18.04
2018-05-15T11:17:01.670Z,17.35
2018-05-15T11:18:01.686Z,16.56
2018-05-15T11:19:01.669Z,16.47
2018-05-15T11:20:01.679Z,15.08
2018-05-15T11:21:01.672Z,17.13
2018-05-15T11:22:01.673Z,17.04
2018-05-15T11:23:01.681Z,16.66
2018-05-15T11:24:01.681Z,16.46
2018-05-15T11:25:01.677Z,16.47
2018-05-15T11:26:01.680Z,16.36
2018-05-15T11:27:01.693Z,16.17
2018-05-15T11:28:01.679Z,17.16
2018-05-15T11:29:01.691Z,16.43
2018-05-15T11:30:01.683Z,17.41
2018-05-15T11:31:01.682Z,16.04
2018-05-15T11:32:01.684Z,16.64
2018-05-15T11:33:01.690Z,16.16
2018-05-15T11:34:01.688Z,16.06
2018-05-15T11:35:01.700Z,16.85
2018-05-15T11:36:01.784Z,16.96
2018-05-15T11:37:01.685Z,16.57
2018-05-15T11:38:01.685Z,14.01
2018-05-15T11:39:01.688Z,15.00
2018-05-15T11:40:01.688Z,15.30
2018-05-15T11:41:01.690Z,15.99
2018-05-15T11:42:01.686Z,16.28
2018-05-15T11:43:01.686Z,15.48
2018-05-15T11:44:01.683Z,16.05
2018-05-15T11:45:01.683Z,16.44
2018-05-15T11:46:01.682Z,16.52
2018-05-15T11:47:01.684Z,17.99
2018-05-15T11:48:01.780Z,18.56
2018-05-15T11:49:02.354Z,18.74
2018-05-15T11:50:02.729Z,19.91
2018-05-15T11:51:02.240Z,21.26
2018-05-15T11:52:02.522Z,22.72
2018-05-15T11:53:02.559Z,22.12
2018-05-15T11:54:01.774Z,21.72
2018-05-15T11:55:01.656Z,22.49
2018-05-15T11:56:01.772Z,23.26
2018-05-15T11:57:01.654Z,25.11
2018-05-15T11:58:01.758Z,25.49
2018-05-15T11:59:01.691Z,23.91
2018-05-15T12:00:01.715Z,24.19
2018-05-15T12:01:01.631Z,24.98
2018-05-15T12:02:01.623Z,23.11
2018-05-15T12:03:01.616Z,24.28
2018-05-15T12:04:01.691Z,24.95
2018-05-15T12:05:01.607Z,25.92
2018-05-15T12:06:01.598Z,25.81
2018-05-15T12:07:01.591Z,25.03
2018-05-15T12:08:01.613Z,25.70
2018-05-15T12:09:01.612Z,26.39
2018-05-15T12:10:01.571Z,26.48
2018-05-15T12:11:01.565Z,24.72
2018-05-15T12:12:01.558Z,25.69
2018-05-15T12:13:01.585Z,26.95
2018-05-15T12:14:01.540Z,25.19
2018-05-15T12:15:01.615Z,26.07
2018-05-15T12:16:01.581Z,27.62
2018-05-15T12:17:01.520Z,27.72
2018-05-15T12:18:01.521Z,27.80
2018-05-15T12:19:01.503Z,28.88
2018-05-15T12:20:01.495Z,28.68
2018-05-15T12:21:01.571Z,29.85
2018-05-15T12:22:01.479Z,30.62
2018-05-15T12:23:01.470Z,29.35
2018-05-15T12:24:01.461Z,28.57
2018-05-15T12:25:01.454Z,28.76
2018-05-15T12:26:01.445Z,29.44
2018-05-15T12:27:01.441Z,30.41
2018-05-15T12:28:01.481Z,30.22
2018-05-15T12:29:01.455Z,30.22
2018-05-15T12:30:01.462Z,30.32
2018-05-15T12:31:01.512Z,30.32
2018-05-15T12:32:01.670Z,30.80
2018-05-15T12:33:01.385Z,31.10
2018-05-15T12:34:01.429Z,30.32
2018-05-15T12:35:01.380Z,30.22
2018-05-15T12:36:01.359Z,29.83
2018-05-15T12:37:01.350Z,31.29
2018-05-15T12:38:01.338Z,31.48
2018-05-15T12:39:01.343Z,30.80
2018-05-15T12:40:01.347Z,27.98
2018-05-15T12:41:01.310Z,29.44
2018-05-15T12:42:01.470Z,27.98
2018-05-15T12:43:01.293Z,26.33
2018-05-15T12:44:01.283Z,28.18
2018-05-15T12:45:01.271Z,29.15
2018-05-15T12:46:01.264Z,29.15
2018-05-15T12:47:01.258Z,28.66
2018-05-15T12:48:01.314Z,29.35
2018-05-15T12:49:01.236Z,29.64
2018-05-15T12:50:01.228Z,27.69
2018-05-15T12:51:01.218Z,27.79
2018-05-15T12:52:01.217Z,28.07